Shaniko, Oregon
Current Conditions -  °F | °C
As of 7:01 AM on Saturday 25 Oct 2014 (Local Time) from KDLS Reporting Station
Overcast Overcast  
Wind Chill: 52°   Ceiling: 2700
Heat Index: 52°   Visibility: 10mi
Dew Point: 48°   Wind: 5mph
Humidity: 86%   Direction: 130°SE
Pressure: 29.65"   Gusts: NA
Location:  45°N, 120.75°W
Report Text: KDLS 251401Z AUTO 13004KT 10SM OVC027 11/09 A2965 RMK AO2 T01110089
Loading
Personal Weather Stations






























Interactive Weather Map
Tropical Storm Tracking
New forecast layout! Learn more

10-Day Weather Forecast

Advertisements
Track Severe Weather on mobile